This is the latest recevied weather packets stored in our database for station/object VK3AFQ-13. If no packets are shown the sender has not sent any weather packets the latest 10 day(s).
| Time | Temp. | Humidity | Pressure | Rain* | Wind** | Luminosity | Snow |
|---|---|---|---|---|---|---|---|
| 1778064364 | 12.78° C | 94% | 1019.3 hPa | - | - | - | - |
| 1778063464 | 13.33° C | 93% | 1019.2 hPa | - | - | - | - |
| 1778062563 | 13.33° C | 93% | 1019.4 hPa | - | - | - | - |
| 1778061662 | 13.33° C | 92% | 1019.4 hPa | - | - | - | - |
| 1778060764 | 13.89° C | 88% | 1019.4 hPa | - | - | - | - |
| 1778059864 | 15° C | 77% | 1019.2 hPa | - | - | - | - |
| 1778058963 | 15° C | 74% | 1019 hPa | - | - | - | - |
| 1778058062 | 15° C | 74% | 1019 hPa | - | - | - | - |
| 1778057164 | 15.56° C | 73% | 1018.9 hPa | - | - | - | - |
| 1778056264 | 15.56° C | 72% | 1018.9 hPa | - | - | - | - |
| 1778055363 | 15.56° C | 72% | 1018.8 hPa | - | - | - | - |
| 1778054462 | 15.56° C | 71% | 1018.9 hPa | - | - | - | - |
| 1778053564 | 15.56° C | 70% | 1018.9 hPa | - | - | - | - |
| 1778052664 | 15.56° C | 69% | 1018.7 hPa | - | - | - | - |
| 1778051764 | 16.11° C | 68% | 1018.8 hPa | - | - | - | - |
| 1778050862 | 16.11° C | 66% | 1018.8 hPa | - | - | - | - |
| 1778049964 | 16.11° C | 67% | 1019 hPa | - | - | - | - |
| 1778049064 | 16.67° C | 65% | 1019.2 hPa | - | - | - | - |
| 1778048164 | 16.67° C | 64% | 1019.3 hPa | - | - | - | - |
| 1778047262 | 16.67° C | 63% | 1019.5 hPa | - | - | - | - |
| 1778046364 | 16.67° C | 62% | 1019.6 hPa | - | - | - | - |
| 1778045464 | 16.67° C | 62% | 1019.8 hPa | - | - | - | - |
| 1778044563 | 16.67° C | 62% | 1019.8 hPa | - | - | - | - |
| 1778043662 | 16.11° C | 67% | 1019.9 hPa | - | - | - | - |
| 1778042764 | 16.11° C | 67% | 1019.9 hPa | - | - | - | - |
* Rain since midnight (hover to see other rain measurements)
** Current wind speed in m/s (hover to see current wind gust speed)